createdAt,value
2016-09-13T00:00:10.779Z,1001.00
2016-09-13T00:00:32.588Z,1000.93
2016-09-13T00:00:54.475Z,1000.77
2016-09-13T00:01:16.296Z,1001.16
2016-09-13T00:01:38.193Z,1001.01
2016-09-13T00:01:59.933Z,1000.94
2016-09-13T00:02:21.727Z,1001.26
2016-09-13T00:02:43.470Z,1001.53
2016-09-13T00:03:05.214Z,1001.32
2016-09-13T00:03:27.079Z,1001.17
2016-09-13T00:03:48.898Z,1001.15
2016-09-13T00:04:10.706Z,1001.15
2016-09-13T00:04:32.442Z,1001.17
2016-09-13T00:04:54.252Z,1001.17
2016-09-13T00:05:42.602Z,1001.22
2016-09-13T00:06:04.353Z,1000.82
2016-09-13T00:06:26.084Z,1000.72
2016-09-13T00:06:47.848Z,1000.81
2016-09-13T00:07:09.707Z,1001.03
2016-09-13T00:07:36.261Z,1001.25
2016-09-13T00:07:58.014Z,1001.14
2016-09-13T00:08:29.282Z,1000.98
2016-09-13T00:08:52.104Z,1000.72
2016-09-13T00:09:13.915Z,1000.85
2016-09-13T00:09:40.933Z,1001.11
2016-09-13T00:10:08.833Z,1001.01
2016-09-13T00:10:30.656Z,1001.18
2016-09-13T00:10:52.388Z,1001.10
2016-09-13T00:11:14.139Z,1001.33
2016-09-13T00:11:35.895Z,1001.33
2016-09-13T00:11:57.627Z,1001.16
2016-09-13T00:12:19.416Z,1001.07
2016-09-13T00:12:41.194Z,1001.23
2016-09-13T00:13:07.861Z,1001.26
2016-09-13T00:13:30.667Z,1000.90
2016-09-13T00:13:52.449Z,1000.98
2016-09-13T00:14:14.229Z,1001.26
2016-09-13T00:14:35.950Z,1001.25
2016-09-13T00:14:57.679Z,1001.23
2016-09-13T00:15:20.429Z,1001.30
2016-09-13T00:15:42.168Z,1001.34
2016-09-13T00:16:03.899Z,1001.06
2016-09-13T00:16:25.727Z,1000.85
2016-09-13T00:16:47.454Z,1000.81
2016-09-13T00:17:09.259Z,1000.81
2016-09-13T00:17:31.011Z,1001.02
2016-09-13T00:17:53.749Z,1001.24
2016-09-13T00:18:15.522Z,1001.10
2016-09-13T00:18:37.256Z,1001.14
2016-09-13T00:18:59.007Z,1001.14
2016-09-13T00:19:20.750Z,1001.17
2016-09-13T00:19:42.487Z,1001.18
2016-09-13T00:20:04.372Z,1001.25
2016-09-13T00:20:26.470Z,1001.12
2016-09-13T00:20:48.199Z,1001.16
2016-09-13T00:21:14.700Z,1001.25
2016-09-13T00:21:36.437Z,1001.31
2016-09-13T00:21:59.166Z,1001.10
2016-09-13T00:22:20.914Z,1001.00
2016-09-13T00:22:42.648Z,1001.08
2016-09-13T00:23:09.166Z,1001.02
2016-09-13T00:23:30.921Z,1001.17
2016-09-13T00:23:53.653Z,1000.99
2016-09-13T00:24:15.406Z,1001.10
2016-09-13T00:24:40.145Z,1001.10
2016-09-13T00:25:01.976Z,1001.04
2016-09-13T00:25:23.717Z,1000.67
2016-09-13T00:25:45.502Z,1000.76
2016-09-13T00:26:07.282Z,1000.66
2016-09-13T00:26:33.787Z,1001.05
2016-09-13T00:26:55.594Z,1001.24
2016-09-13T00:27:17.361Z,1001.23
2016-09-13T00:27:43.864Z,1000.90
2016-09-13T00:28:05.663Z,1001.28
2016-09-13T00:28:27.415Z,1001.32
2016-09-13T00:28:49.243Z,1001.14
2016-09-13T00:29:11.080Z,1001.01
2016-09-13T00:29:32.824Z,1001.01
2016-09-13T00:29:54.603Z,1001.00
2016-09-13T00:30:16.357Z,1001.03
2016-09-13T00:30:38.107Z,1000.88
2016-09-13T00:30:59.941Z,1000.78
2016-09-13T00:31:26.459Z,1001.09
2016-09-13T00:31:48.222Z,1001.02
2016-09-13T00:32:09.982Z,1000.86
2016-09-13T00:32:31.736Z,1001.16
2016-09-13T00:32:53.486Z,1000.94
2016-09-13T00:33:15.233Z,1001.15
2016-09-13T00:33:41.752Z,1001.17
2016-09-13T00:34:03.493Z,1001.17
2016-09-13T00:34:26.255Z,1000.99
2016-09-13T00:34:48.269Z,1000.96
2016-09-13T00:35:14.782Z,1000.75
2016-09-13T00:35:36.526Z,1000.95
2016-09-13T00:35:58.276Z,1001.24
2016-09-13T00:36:20.055Z,1001.33
2016-09-13T00:36:41.845Z,1000.83
2016-09-13T00:37:04.577Z,1001.00
2016-09-13T00:37:26.306Z,1001.19
2016-09-13T00:37:48.055Z,1001.11
2016-09-13T00:38:14.606Z,1001.29
2016-09-13T00:38:36.337Z,1000.99
2016-09-13T00:38:58.171Z,1000.92
2016-09-13T00:39:19.934Z,1000.80
2016-09-13T00:39:41.703Z,1000.75
2016-09-13T00:40:03.434Z,1001.07
2016-09-13T00:40:25.227Z,1000.90
2016-09-13T00:40:47.038Z,1000.79
2016-09-13T00:41:08.850Z,1001.14
2016-09-13T00:41:30.700Z,1001.05
2016-09-13T00:41:52.433Z,1000.97
2016-09-13T00:42:14.171Z,1001.08
2016-09-13T00:42:35.984Z,1001.18
2016-09-13T00:42:57.726Z,1001.04
2016-09-13T00:43:19.521Z,1001.09
2016-09-13T00:43:41.288Z,1000.93
2016-09-13T00:44:03.137Z,1001.22
2016-09-13T00:44:24.865Z,1001.32
2016-09-13T00:44:47.607Z,1001.33
2016-09-13T00:45:09.351Z,1001.02
2016-09-13T00:45:31.082Z,1000.76
2016-09-13T00:45:52.829Z,1000.89
2016-09-13T00:46:14.600Z,1000.91
2016-09-13T00:46:36.394Z,1001.50
2016-09-13T00:46:59.227Z,1001.33
2016-09-13T00:47:20.990Z,1001.14
2016-09-13T00:47:42.734Z,1001.22
2016-09-13T00:48:04.497Z,1001.04
2016-09-13T00:48:26.270Z,1001.03
2016-09-13T00:48:48.101Z,1000.91
2016-09-13T00:49:09.851Z,1001.17
2016-09-13T00:49:31.589Z,1001.08
2016-09-13T00:49:53.326Z,1000.91
2016-09-13T00:50:15.144Z,1001.20
2016-09-13T00:50:36.894Z,1001.01
2016-09-13T00:50:58.632Z,1001.08
2016-09-13T00:51:20.372Z,1001.30
2016-09-13T00:51:42.104Z,1001.18
2016-09-13T00:52:03.890Z,1001.35
2016-09-13T00:52:25.646Z,1001.23
2016-09-13T00:52:47.377Z,1001.12
2016-09-13T00:53:09.231Z,1001.09
2016-09-13T00:53:30.958Z,1001.17
2016-09-13T00:53:52.699Z,1001.18
2016-09-13T00:54:14.427Z,1001.21
2016-09-13T00:54:36.187Z,1001.08
2016-09-13T00:54:57.934Z,1000.96
2016-09-13T00:55:19.662Z,1001.00
2016-09-13T00:55:41.412Z,1000.80
2016-09-13T00:56:03.160Z,1000.83
2016-09-13T00:56:24.906Z,1000.91
2016-09-13T00:56:46.624Z,1000.88
2016-09-13T00:57:08.398Z,1000.87
2016-09-13T00:57:30.125Z,1000.95
2016-09-13T00:57:51.891Z,1000.85
2016-09-13T00:58:13.652Z,1000.99
2016-09-13T00:58:35.457Z,1001.43
2016-09-13T00:58:57.291Z,1001.43
2016-09-13T00:59:19.025Z,1001.31
2016-09-13T00:59:40.769Z,1001.25
2016-09-13T01:00:02.526Z,1000.93
2016-09-13T01:00:24.270Z,1000.91
2016-09-13T01:00:46.075Z,1000.95
2016-09-13T01:01:07.816Z,1000.80
2016-09-13T01:01:29.546Z,1000.79
2016-09-13T01:01:51.277Z,1000.96
2016-09-13T01:02:13.048Z,1001.20
2016-09-13T01:02:39.547Z,1001.34
2016-09-13T01:03:02.294Z,1001.42
2016-09-13T01:03:24.167Z,1001.20
2016-09-13T01:03:45.932Z,1001.23
2016-09-13T01:04:12.494Z,1001.15
2016-09-13T01:04:34.280Z,1000.92
2016-09-13T01:04:56.014Z,1000.85
2016-09-13T01:05:17.746Z,1000.83
2016-09-13T01:06:06.062Z,1000.94
2016-09-13T01:06:27.806Z,1000.74
2016-09-13T01:07:16.065Z,1001.29
2016-09-13T01:07:37.816Z,1001.22
2016-09-13T01:07:59.543Z,1001.28
2016-09-13T01:08:21.329Z,1001.31
2016-09-13T01:08:43.115Z,1001.23
2016-09-13T01:09:04.863Z,1000.95
2016-09-13T01:09:26.648Z,1001.12
2016-09-13T01:09:48.587Z,1000.85
2016-09-13T01:10:10.324Z,1000.82
2016-09-13T01:10:33.089Z,1000.65
2016-09-13T01:10:54.827Z,1000.72
2016-09-13T01:11:16.570Z,1000.81
2016-09-13T01:11:38.292Z,1001.14
2016-09-13T01:12:00.027Z,1001.02
2016-09-13T01:12:21.809Z,1001.07
2016-09-13T01:12:43.624Z,1001.28
2016-09-13T01:13:05.527Z,1001.24
2016-09-13T01:13:32.039Z,1001.13
2016-09-13T01:13:53.774Z,1001.04
2016-09-13T01:14:15.521Z,1001.03
2016-09-13T01:14:37.275Z,1001.02
2016-09-13T01:14:59.022Z,1000.98
2016-09-13T01:15:20.877Z,1000.94
2016-09-13T01:15:42.743Z,1001.08
2016-09-13T01:16:04.574Z,1001.05
2016-09-13T01:16:26.446Z,1000.87
2016-09-13T01:16:48.385Z,1000.65
2016-09-13T01:17:10.158Z,1000.81
2016-09-13T01:17:31.931Z,1000.76
2016-09-13T01:17:53.654Z,1000.92
2016-09-13T01:18:15.396Z,1001.34
2016-09-13T01:18:37.185Z,1001.27
2016-09-13T01:19:03.672Z,1001.03
2016-09-13T01:19:25.428Z,1000.87
2016-09-13T01:19:47.162Z,1000.94
2016-09-13T01:20:09.898Z,1000.95
2016-09-13T01:20:31.678Z,1000.98
2016-09-13T01:20:53.496Z,1000.98
2016-09-13T01:21:15.232Z,1000.86
2016-09-13T01:21:37.025Z,1001.03
2016-09-13T01:22:25.272Z,1000.85
2016-09-13T01:22:46.999Z,1000.78
2016-09-13T01:23:08.756Z,1000.98
2016-09-13T01:23:30.485Z,1000.82
2016-09-13T01:23:52.215Z,1000.78
2016-09-13T01:24:18.776Z,1000.95
2016-09-13T01:24:40.501Z,1000.88
2016-09-13T01:25:03.224Z,1001.10
2016-09-13T01:25:24.995Z,1001.21
2016-09-13T01:25:46.776Z,1001.31
2016-09-13T01:26:08.513Z,1001.48
2016-09-13T01:26:30.238Z,1001.24
2016-09-13T01:26:53.016Z,1001.08
2016-09-13T01:27:19.549Z,1001.24
2016-09-13T01:28:07.940Z,1001.02
2016-09-13T01:28:30.747Z,1001.26
2016-09-13T01:28:57.259Z,1001.03
2016-09-13T01:29:18.990Z,1000.80
2016-09-13T01:29:40.718Z,1000.72
2016-09-13T01:30:02.465Z,1000.64
2016-09-13T01:30:24.192Z,1000.91
2016-09-13T01:30:46.061Z,1000.84
2016-09-13T01:31:07.812Z,1000.76
2016-09-13T01:31:29.620Z,1001.20
2016-09-13T01:31:51.451Z,1001.08
2016-09-13T01:32:13.198Z,1000.93
2016-09-13T01:32:35.013Z,1000.93
2016-09-13T01:32:56.749Z,1000.80
2016-09-13T01:33:18.519Z,1000.76
2016-09-13T01:33:40.447Z,1001.13
2016-09-13T01:34:02.187Z,1001.11
2016-09-13T01:34:23.919Z,1001.01
2016-09-13T01:34:45.652Z,1000.85
2016-09-13T01:35:07.399Z,1000.84
2016-09-13T01:35:29.220Z,1000.75
2016-09-13T01:35:51.025Z,1000.75
2016-09-13T01:36:12.792Z,1000.80
2016-09-13T01:36:35.643Z,1000.78
2016-09-13T01:37:02.134Z,1000.84
2016-09-13T01:37:23.873Z,1001.02
2016-09-13T01:37:45.608Z,1000.78
2016-09-13T01:38:07.406Z,1000.92
2016-09-13T01:38:30.196Z,1000.73
2016-09-13T01:38:51.937Z,1000.75
2016-09-13T01:39:15.691Z,1000.85
2016-09-13T01:39:42.228Z,1000.98
2016-09-13T01:40:08.817Z,1001.15
2016-09-13T01:40:31.573Z,1001.26
2016-09-13T01:40:53.323Z,1001.02
2016-09-13T01:41:15.073Z,1000.64
2016-09-13T01:41:36.817Z,1000.90
2016-09-13T01:41:58.628Z,1000.97
2016-09-13T01:42:20.582Z,1000.95
2016-09-13T01:43:08.827Z,1000.94
2016-09-13T01:43:30.603Z,1000.84
2016-09-13T01:43:52.337Z,1000.92
2016-09-13T01:44:14.132Z,1000.75
2016-09-13T01:44:35.898Z,1000.78
2016-09-13T01:44:57.642Z,1000.84
2016-09-13T01:45:19.377Z,1000.99
2016-09-13T01:45:41.115Z,1000.89
2016-09-13T01:46:02.852Z,1000.49
2016-09-13T01:46:24.590Z,1001.00
2016-09-13T01:46:46.327Z,1000.90
2016-09-13T01:47:08.129Z,1000.88
2016-09-13T01:47:29.981Z,1000.83
2016-09-13T01:47:51.838Z,1000.71
2016-09-13T01:48:13.624Z,1000.87
2016-09-13T01:48:35.361Z,1000.98
2016-09-13T01:48:57.176Z,1000.98
2016-09-13T01:49:18.927Z,1001.00
2016-09-13T01:49:40.766Z,1000.83
2016-09-13T01:50:02.558Z,1000.62
2016-09-13T01:50:24.360Z,1000.45
2016-09-13T01:50:46.129Z,1000.53
2016-09-13T01:51:08.078Z,1000.45
2016-09-13T01:51:30.837Z,1000.65
2016-09-13T01:51:52.582Z,1000.56
2016-09-13T01:52:14.327Z,1000.81
2016-09-13T01:52:36.079Z,1000.88
2016-09-13T01:52:57.854Z,1001.20
2016-09-13T01:53:19.608Z,1001.18
2016-09-13T01:53:41.352Z,1001.00
2016-09-13T01:54:04.094Z,1000.93
2016-09-13T01:54:25.839Z,1000.83
2016-09-13T01:54:50.282Z,1000.75
2016-09-13T01:55:12.072Z,1000.87
2016-09-13T01:55:38.625Z,1000.77
2016-09-13T01:56:26.993Z,1000.93
2016-09-13T01:56:48.715Z,1000.78
2016-09-13T01:57:10.458Z,1000.78
2016-09-13T01:57:32.192Z,1000.80
2016-09-13T01:57:53.924Z,1000.69
2016-09-13T01:58:15.649Z,1000.97
2016-09-13T01:58:42.155Z,1000.84
2016-09-13T01:59:03.880Z,1000.58
2016-09-13T01:59:25.608Z,1000.78
2016-09-13T01:59:47.489Z,1000.91
2016-09-13T02:00:09.214Z,1000.78
2016-09-13T02:00:31.073Z,1000.76
2016-09-13T02:00:53.041Z,1000.95
2016-09-13T02:01:14.779Z,1000.88
2016-09-13T02:01:36.513Z,1000.81
2016-09-13T02:01:58.244Z,1000.55
2016-09-13T02:02:19.979Z,1000.50
2016-09-13T02:02:41.723Z,1000.69
2016-09-13T02:03:03.473Z,1000.77
2016-09-13T02:03:25.214Z,1000.61
2016-09-13T02:03:46.949Z,1000.85
2016-09-13T02:04:09.688Z,1000.77
2016-09-13T02:04:31.413Z,1000.73
2016-09-13T02:04:57.915Z,1000.86
2016-09-13T02:05:19.647Z,1001.03
2016-09-13T02:05:41.386Z,1001.30
2016-09-13T02:06:03.115Z,1001.19
2016-09-13T02:06:24.969Z,1001.10
2016-09-13T02:06:46.692Z,1001.08
2016-09-13T02:07:08.417Z,1001.11
2016-09-13T02:07:56.750Z,1001.06
2016-09-13T02:08:18.498Z,1000.84
2016-09-13T02:08:41.358Z,1000.76
2016-09-13T02:09:03.093Z,1000.81
2016-09-13T02:09:24.857Z,1000.73
2016-09-13T02:09:46.689Z,1000.82
2016-09-13T02:10:08.698Z,1000.52
2016-09-13T02:10:30.409Z,1000.89
2016-09-13T02:10:52.138Z,1000.87
2016-09-13T02:11:13.892Z,1000.98
2016-09-13T02:11:36.664Z,1000.80
2016-09-13T02:11:58.474Z,1000.96
2016-09-13T02:12:20.284Z,1000.74
2016-09-13T02:12:42.016Z,1000.78
2016-09-13T02:13:03.934Z,1001.08
2016-09-13T02:13:25.751Z,1000.92
2016-09-13T02:13:47.486Z,1000.82
2016-09-13T02:14:09.218Z,1000.83
2016-09-13T02:14:30.980Z,1000.82
2016-09-13T02:15:19.217Z,1001.01
2016-09-13T02:15:40.945Z,1000.99
2016-09-13T02:16:02.676Z,1000.87
2016-09-13T02:16:26.417Z,1000.66
2016-09-13T02:16:48.158Z,1000.84
2016-09-13T02:17:09.902Z,1000.80
2016-09-13T02:17:31.643Z,1000.73
2016-09-13T02:17:53.371Z,1000.84
2016-09-13T02:18:15.156Z,1001.23
2016-09-13T02:18:36.946Z,1000.98
2016-09-13T02:18:58.690Z,1000.72
2016-09-13T02:19:20.495Z,1000.83
2016-09-13T02:19:42.296Z,1000.95
2016-09-13T02:20:04.177Z,1000.92
2016-09-13T02:20:25.918Z,1000.97
2016-09-13T02:20:47.713Z,1000.98
2016-09-13T02:21:09.672Z,1001.11
2016-09-13T02:21:31.436Z,1001.16
2016-09-13T02:21:53.169Z,1001.06
2016-09-13T02:22:14.897Z,1001.08
2016-09-13T02:22:36.688Z,1000.98
2016-09-13T02:22:58.433Z,1000.97
2016-09-13T02:23:20.183Z,1000.76
2016-09-13T02:23:42.925Z,1000.80
2016-09-13T02:24:04.750Z,1000.79
2016-09-13T02:24:26.491Z,1000.92
2016-09-13T02:24:48.222Z,1001.04
2016-09-13T02:25:09.947Z,1001.11
2016-09-13T02:25:31.696Z,1001.23
2016-09-13T02:25:58.226Z,1001.05
2016-09-13T02:26:19.953Z,1000.79
2016-09-13T02:26:41.685Z,1000.96
2016-09-13T02:27:03.438Z,1000.83
2016-09-13T02:27:26.174Z,1000.86
2016-09-13T02:27:47.936Z,1000.90
2016-09-13T02:28:10.749Z,1001.07
2016-09-13T02:28:32.465Z,1000.91
2016-09-13T02:28:54.197Z,1000.86
2016-09-13T02:29:16.021Z,1000.78
2016-09-13T02:29:37.823Z,1000.92
2016-09-13T02:29:59.649Z,1000.96
2016-09-13T02:30:21.387Z,1000.92
2016-09-13T02:30:43.120Z,1001.06
2016-09-13T02:31:04.856Z,1001.18
2016-09-13T02:31:26.597Z,1001.08
2016-09-13T02:31:48.376Z,1000.89
2016-09-13T02:32:10.209Z,1001.06
2016-09-13T02:32:32.152Z,1000.89
2016-09-13T02:32:53.963Z,1001.02
2016-09-13T02:33:15.777Z,1000.97
2016-09-13T02:33:37.528Z,1000.97
2016-09-13T02:33:59.429Z,1000.87
2016-09-13T02:34:21.265Z,1000.81
2016-09-13T02:34:43.115Z,1000.90
2016-09-13T02:35:04.888Z,1000.94
2016-09-13T02:35:26.698Z,1000.92
2016-09-13T02:35:48.436Z,1000.89
2016-09-13T02:36:10.174Z,1000.85
2016-09-13T02:36:32.007Z,1000.59
2016-09-13T02:36:53.822Z,1000.81
2016-09-13T02:37:16.635Z,1000.71
2016-09-13T02:37:38.453Z,1000.68
2016-09-13T02:38:00.452Z,1000.71
2016-09-13T02:38:22.744Z,1000.72
2016-09-13T02:38:44.420Z,1000.95
2016-09-13T02:39:06.168Z,1000.84
2016-09-13T02:39:27.908Z,1000.76
2016-09-13T02:39:49.662Z,1000.90
2016-09-13T02:40:11.394Z,1001.06
2016-09-13T02:40:59.902Z,1000.85
2016-09-13T02:41:21.629Z,1001.07
2016-09-13T02:41:43.460Z,1001.22
2016-09-13T02:42:05.189Z,1001.28
2016-09-13T02:42:26.968Z,1001.11
2016-09-13T02:42:48.715Z,1000.80
2016-09-13T02:43:11.451Z,1000.91
2016-09-13T02:43:33.236Z,1001.07
2016-09-13T02:43:54.964Z,1000.95
2016-09-13T02:44:16.706Z,1001.07
2016-09-13T02:44:39.432Z,1000.83
2016-09-13T02:45:01.185Z,1000.87
2016-09-13T02:45:22.939Z,1000.80
2016-09-13T02:45:44.680Z,1000.77
2016-09-13T02:46:06.405Z,1000.88
2016-09-13T02:46:28.209Z,1000.91
2016-09-13T02:46:50.005Z,1000.93
2016-09-13T02:47:11.745Z,1001.01
2016-09-13T02:47:33.521Z,1000.77
2016-09-13T02:47:55.371Z,1000.62
2016-09-13T02:48:17.157Z,1000.87
2016-09-13T02:48:38.955Z,1000.91
2016-09-13T02:49:05.470Z,1000.92
2016-09-13T02:49:27.208Z,1000.78
2016-09-13T02:49:48.974Z,1000.77
2016-09-13T02:50:10.784Z,1000.53
2016-09-13T02:50:32.518Z,1000.57
2016-09-13T02:50:54.267Z,1000.82
2016-09-13T02:51:18.814Z,1000.98
2016-09-13T02:51:40.597Z,1001.02
2016-09-13T02:52:02.325Z,1000.76
2016-09-13T02:52:25.070Z,1000.54
2016-09-13T02:52:46.808Z,1000.63
2016-09-13T02:53:08.527Z,1000.68
2016-09-13T02:53:30.273Z,1001.00
2016-09-13T02:53:52.085Z,1001.21
2016-09-13T02:54:13.822Z,1001.14
2016-09-13T02:54:35.583Z,1000.90
2016-09-13T02:54:57.317Z,1000.99
2016-09-13T02:55:19.073Z,1000.86
2016-09-13T02:55:40.888Z,1000.77
2016-09-13T02:56:02.726Z,1000.77
2016-09-13T02:56:24.459Z,1000.82
2016-09-13T02:56:46.251Z,1000.82
2016-09-13T02:57:08.008Z,1000.82
2016-09-13T02:57:29.796Z,1000.77
2016-09-13T02:57:51.786Z,1000.64
2016-09-13T02:58:13.550Z,1000.39
2016-09-13T02:58:35.454Z,1000.53
2016-09-13T02:58:57.176Z,1000.94
2016-09-13T02:59:18.919Z,1001.06
2016-09-13T02:59:40.654Z,1000.95
2016-09-13T03:00:02.420Z,1000.74
2016-09-13T03:00:24.225Z,1000.74
2016-09-13T03:00:46.945Z,1000.81
2016-09-13T03:01:08.703Z,1000.71
2016-09-13T03:01:30.443Z,1000.78
2016-09-13T03:01:52.225Z,1000.86
2016-09-13T03:02:13.956Z,1000.72
2016-09-13T03:02:36.711Z,1000.76
2016-09-13T03:02:58.468Z,1000.75
2016-09-13T03:03:20.226Z,1000.76
2016-09-13T03:03:42.001Z,1000.52
2016-09-13T03:04:03.787Z,1000.40
2016-09-13T03:04:25.598Z,1000.69
2016-09-13T03:04:47.343Z,1000.55
2016-09-13T03:05:09.118Z,1000.44
2016-09-13T03:05:30.952Z,1000.66
2016-09-13T03:05:52.690Z,1000.77
2016-09-13T03:06:14.507Z,1000.66
2016-09-13T03:06:36.356Z,1000.85
2016-09-13T03:06:58.216Z,1000.89
2016-09-13T03:07:19.967Z,1001.00
2016-09-13T03:07:41.729Z,1001.13
2016-09-13T03:08:03.553Z,1001.04
2016-09-13T03:08:25.336Z,1001.03
2016-09-13T03:08:47.128Z,1001.00
2016-09-13T03:09:08.856Z,1001.03
2016-09-13T03:09:30.654Z,1000.62
2016-09-13T03:09:52.574Z,1000.52
2016-09-13T03:10:14.369Z,1000.37
2016-09-13T03:10:36.107Z,1000.66
2016-09-13T03:10:57.938Z,1000.62
2016-09-13T03:11:19.666Z,1000.73
2016-09-13T03:11:41.400Z,1000.93
2016-09-13T03:12:03.183Z,1001.13
2016-09-13T03:12:24.969Z,1001.05
2016-09-13T03:12:46.756Z,1000.97
2016-09-13T03:13:08.503Z,1000.66
2016-09-13T03:13:31.287Z,1000.94
2016-09-13T03:13:53.026Z,1001.04
2016-09-13T03:14:15.794Z,1001.05
2016-09-13T03:14:37.546Z,1000.87
2016-09-13T03:14:59.295Z,1000.86
2016-09-13T03:15:21.092Z,1000.64
2016-09-13T03:15:42.818Z,1000.77
2016-09-13T03:16:04.549Z,1000.88
2016-09-13T03:16:26.312Z,1000.83
2016-09-13T03:16:48.066Z,1000.43
2016-09-13T03:17:09.903Z,1000.42
2016-09-13T03:17:31.646Z,1000.89
2016-09-13T03:17:53.384Z,1001.08
2016-09-13T03:18:15.144Z,1001.21
2016-09-13T03:18:36.872Z,1000.95
2016-09-13T03:18:58.719Z,1000.81
2016-09-13T03:19:20.447Z,1001.00
2016-09-13T03:19:42.261Z,1000.86
2016-09-13T03:20:03.998Z,1000.84
2016-09-13T03:20:25.727Z,1000.81
2016-09-13T03:20:47.455Z,1000.75
2016-09-13T03:21:09.199Z,1000.84
2016-09-13T03:21:30.977Z,1000.58
2016-09-13T03:21:52.799Z,1000.39
2016-09-13T03:22:14.575Z,1000.48
2016-09-13T03:22:36.359Z,1000.56
2016-09-13T03:22:58.114Z,1000.93
2016-09-13T03:23:20.827Z,1001.03
2016-09-13T03:23:42.600Z,1000.58
2016-09-13T03:24:09.160Z,1001.41
2016-09-13T03:24:35.682Z,1001.28
2016-09-13T03:24:57.451Z,1000.90
2016-09-13T03:25:19.247Z,1000.78
2016-09-13T03:25:40.994Z,1000.78
2016-09-13T03:26:02.774Z,1000.78
2016-09-13T03:26:24.562Z,1000.69
2016-09-13T03:26:47.340Z,1000.54
2016-09-13T03:27:09.179Z,1000.41
2016-09-13T03:27:30.923Z,1000.47
2016-09-13T03:27:52.674Z,1000.88
2016-09-13T03:28:14.402Z,1000.83
2016-09-13T03:28:36.178Z,1000.98
2016-09-13T03:28:58.095Z,1001.09
2016-09-13T03:29:19.816Z,1000.83
2016-09-13T03:29:41.540Z,1000.79
2016-09-13T03:30:03.275Z,1000.76
2016-09-13T03:30:25.010Z,1000.86
2016-09-13T03:30:46.735Z,1000.64
2016-09-13T03:31:08.517Z,1000.69
2016-09-13T03:31:30.303Z,1000.64
2016-09-13T03:31:52.031Z,1000.49
2016-09-13T03:32:13.804Z,1001.03
2016-09-13T03:32:35.615Z,1001.10
2016-09-13T03:32:57.432Z,1000.69
2016-09-13T03:33:19.202Z,1000.32
2016-09-13T03:33:40.930Z,1000.41
2016-09-13T03:34:02.723Z,1000.42
2016-09-13T03:34:24.620Z,1000.71
2016-09-13T03:34:46.500Z,1000.94
2016-09-13T03:35:08.296Z,1000.98
2016-09-13T03:35:30.165Z,1000.88
2016-09-13T03:35:51.925Z,1000.85
2016-09-13T03:36:13.653Z,1000.78
2016-09-13T03:36:40.156Z,1000.64
2016-09-13T03:37:01.909Z,1000.47
2016-09-13T03:37:28.488Z,1000.46
2016-09-13T03:37:50.284Z,1000.53
2016-09-13T03:38:12.060Z,1000.28
2016-09-13T03:38:33.813Z,1000.63
2016-09-13T03:39:22.290Z,1000.68
2016-09-13T03:39:44.072Z,1000.69
2016-09-13T03:40:05.810Z,1000.76
2016-09-13T03:40:27.601Z,1000.77
2016-09-13T03:40:49.326Z,1000.71
2016-09-13T03:41:11.142Z,1001.06
2016-09-13T03:41:33.064Z,1000.91
2016-09-13T03:41:54.818Z,1000.72
2016-09-13T03:42:16.562Z,1000.92
2016-09-13T03:42:38.293Z,1000.81
2016-09-13T03:43:00.033Z,1000.73
2016-09-13T03:43:21.781Z,1000.97
2016-09-13T03:43:43.531Z,1000.76
2016-09-13T03:44:05.359Z,1000.68
2016-09-13T03:44:27.090Z,1000.90
2016-09-13T03:44:48.821Z,1000.84
2016-09-13T03:45:10.571Z,1000.80
2016-09-13T03:45:32.299Z,1000.73
2016-09-13T03:45:54.040Z,1000.74
2016-09-13T03:46:15.781Z,1000.78
2016-09-13T03:46:37.535Z,1000.76
2016-09-13T03:46:59.279Z,1000.75
2016-09-13T03:47:21.016Z,1000.65
2016-09-13T03:47:42.871Z,1000.64
2016-09-13T03:48:04.597Z,1000.49
2016-09-13T03:48:26.333Z,1000.53
2016-09-13T03:48:48.168Z,1000.49
2016-09-13T03:49:09.976Z,1000.41
2016-09-13T03:49:31.739Z,1000.37
2016-09-13T03:49:53.559Z,1000.51
2016-09-13T03:50:15.288Z,1000.66
2016-09-13T03:50:37.016Z,1000.67
2016-09-13T03:51:25.253Z,1000.86
2016-09-13T03:51:47.982Z,1000.74
2016-09-13T03:52:09.727Z,1000.60
2016-09-13T03:52:31.438Z,1000.41
2016-09-13T03:52:53.176Z,1000.55
2016-09-13T03:53:14.917Z,1000.92
2016-09-13T03:53:36.680Z,1000.78
2016-09-13T03:53:58.447Z,1000.64
2016-09-13T03:54:20.190Z,1000.80
2016-09-13T03:54:41.919Z,1000.63
2016-09-13T03:55:03.647Z,1000.65
2016-09-13T03:55:25.393Z,1000.57
2016-09-13T03:55:47.141Z,1000.36
2016-09-13T03:56:08.888Z,1000.56
2016-09-13T03:56:30.622Z,1000.64
2016-09-13T03:56:57.122Z,1000.13
2016-09-13T03:57:18.846Z,1000.53
2016-09-13T03:57:40.626Z,1000.66
2016-09-13T03:58:02.437Z,1000.62
2016-09-13T03:58:24.184Z,1000.48
2016-09-13T03:58:45.944Z,1000.63
2016-09-13T03:59:07.678Z,1000.71
2016-09-13T03:59:34.191Z,1001.01
2016-09-13T03:59:55.928Z,1001.03
2016-09-13T04:00:17.656Z,1001.10
2016-09-13T04:00:39.497Z,1000.88
2016-09-13T04:01:01.333Z,1000.80
2016-09-13T04:01:27.826Z,1000.46
2016-09-13T04:01:49.570Z,1000.39
2016-09-13T04:02:11.324Z,1000.41
2016-09-13T04:02:33.074Z,1000.74
2016-09-13T04:02:54.860Z,1000.88
2016-09-13T04:03:16.614Z,1000.77
2016-09-13T04:03:38.347Z,1000.76
2016-09-13T04:04:00.072Z,1000.66
2016-09-13T04:04:21.887Z,1000.71
2016-09-13T04:04:43.845Z,1000.66
2016-09-13T04:05:05.612Z,1000.78
2016-09-13T04:05:27.348Z,1000.75
2016-09-13T04:05:49.087Z,1000.67
2016-09-13T04:06:10.942Z,1000.78
2016-09-13T04:06:32.677Z,1000.70
2016-09-13T04:06:54.415Z,1000.63
2016-09-13T04:07:16.159Z,1000.65
2016-09-13T04:07:37.890Z,1000.56
2016-09-13T04:07:59.618Z,1000.50
2016-09-13T04:08:21.359Z,1000.26
2016-09-13T04:08:43.093Z,1000.35
2016-09-13T04:09:04.895Z,1000.44
2016-09-13T04:09:26.638Z,1000.75
2016-09-13T04:09:48.360Z,1000.67
2016-09-13T04:10:10.085Z,1000.78
2016-09-13T04:10:31.823Z,1000.57
2016-09-13T04:10:53.573Z,1000.43
2016-09-13T04:11:15.461Z,1000.80
2016-09-13T04:11:37.282Z,1000.77
2016-09-13T04:11:59.026Z,1000.94
2016-09-13T04:12:20.834Z,1000.80
2016-09-13T04:12:42.575Z,1000.87
2016-09-13T04:13:04.335Z,1000.79
2016-09-13T04:13:26.171Z,1000.59
2016-09-13T04:13:47.905Z,1000.52
2016-09-13T04:14:09.637Z,1000.68
2016-09-13T04:14:31.458Z,1000.63
2016-09-13T04:14:53.179Z,1001.19
2016-09-13T04:15:14.908Z,1001.18
2016-09-13T04:15:36.660Z,1000.92
2016-09-13T04:15:58.398Z,1000.98
2016-09-13T04:16:20.139Z,1000.90
2016-09-13T04:16:42.872Z,1000.91
2016-09-13T04:17:04.712Z,1000.75
2016-09-13T04:17:26.485Z,1000.62
2016-09-13T04:17:53.318Z,1000.26
2016-09-13T04:18:16.062Z,1000.58
2016-09-13T04:18:37.790Z,1000.47
2016-09-13T04:18:59.518Z,1000.45
2016-09-13T04:19:21.269Z,1000.77
2016-09-13T04:19:43.010Z,1000.72
2016-09-13T04:20:05.740Z,1001.09
2016-09-13T04:20:27.537Z,1000.72
2016-09-13T04:20:49.303Z,1000.61
2016-09-13T04:21:11.045Z,1000.52
2016-09-13T04:21:32.763Z,1000.80
2016-09-13T04:21:54.523Z,1000.89
2016-09-13T04:22:21.032Z,1000.66
2016-09-13T04:22:42.811Z,1000.70
2016-09-13T04:23:04.558Z,1000.89
2016-09-13T04:23:26.303Z,1000.83
2016-09-13T04:23:48.034Z,1000.91
2016-09-13T04:24:09.780Z,1000.72
2016-09-13T04:24:31.518Z,1000.79
2016-09-13T04:24:53.259Z,1000.80
2016-09-13T04:25:14.987Z,1000.89
2016-09-13T04:25:36.769Z,1000.82
2016-09-13T04:25:58.507Z,1000.82
2016-09-13T04:26:20.248Z,1000.48
2016-09-13T04:26:42.063Z,1000.43
2016-09-13T04:27:03.867Z,1000.77
2016-09-13T04:27:26.648Z,1001.06
2016-09-13T04:27:50.408Z,1000.91
2016-09-13T04:28:17.933Z,1000.78
2016-09-13T04:28:40.658Z,1000.81
2016-09-13T04:29:02.389Z,1000.84
2016-09-13T04:29:24.149Z,1000.64
2016-09-13T04:29:45.870Z,1000.91
2016-09-13T04:30:12.379Z,1000.99
2016-09-13T04:30:38.892Z,1000.85
2016-09-13T04:31:00.612Z,1000.91
2016-09-13T04:31:22.341Z,1000.90
2016-09-13T04:31:44.069Z,1000.75
2016-09-13T04:32:05.800Z,1000.48
2016-09-13T04:32:27.518Z,1000.89
2016-09-13T04:32:49.233Z,1000.98